Time;durP1;ratioP1;P1;durP2;ratioP2;P2;SDS_P1;SDS_P2;PMS_P1;PMS_P2;Temp;Humidity;BMP_temperature;BMP_pressure;BME280_temperature;BME280_humidity;BME280_pressure;Samples;Min_cycle;Max_cycle;Signal;HPM_P1;HPM_P2
2021/12/17 00:06:05;;;;;;;27.80;14.77;;;;;;;0.02;85.83;94054.66;5002914;28;20447;-88
2021/12/17 00:09:15;;;;;;;;;;;;;;;;;;;;;
2021/12/17 00:12:31;;;;;;;31.27;13.45;;;;;;;0.14;85.58;94084.09;5014218;28;20494;-91
2021/12/17 00:15:19;;;;;;;30.27;15.05;;;;;;;-0.04;85.66;94055.41;4999443;28;20044;-88
2021/12/17 00:18:40;;;;;;;;;;;;;;;;;;;;;
2021/12/17 00:48:46;;;;;;;26.42;14.02;;;;;;;-0.27;87.32;93984.28;5036058;28;20072;-92
2021/12/17 00:54:20;;;;;;;29.42;15.48;;;;;;;-0.33;86.89;93990.16;5040634;28;20097;-88
2021/12/17 00:57:03;;;;;;;33.83;15.45;;;;;;;-0.27;87.64;93994.59;5018816;28;20103;-88
2021/12/17 01:00:24;;;;;;;;;;;;;;;;;;;;;
2021/12/17 01:02:54;;;;;;;34.58;15.77;;;;;;;0.09;88.14;94044.41;5024710;28;20040;-89
2021/12/17 01:06:08;;;;;;;33.55;16.58;;;;;;;0.01;88.97;94032.47;4997861;28;20073;-88
2021/12/17 01:08:42;;;;;;;32.25;16.75;;;;;;;-0.06;88.75;94014.38;4977268;28;20487;-89
2021/12/17 01:11:19;;;;;;;36.20;16.42;;;;;;;-0.03;88.33;94018.38;4993374;28;20030;-88
2021/12/17 01:17:39;;;;;;;30.75;16.40;;;;;;;-0.21;87.29;93991.25;4957165;28;20061;-88
2021/12/17 01:36:41;;;;;;;34.08;14.02;;;;;;;0.09;87.86;94073.56;4974378;28;20073;-87
2021/12/17 01:42:05;;;;;;;30.50;14.73;;;;;;;0.03;87.19;94066.56;4959424;28;20061;-88
2021/12/17 01:44:32;;;;;;;24.20;12.88;;;;;;;0.00;87.31;94066.94;4956499;28;20145;-88
2021/12/17 01:47:15;;;;;;;30.35;12.77;;;;;;;0.06;87.00;94075.69;4955643;28;20039;-88
2021/12/17 02:01:53;;;;;;;;;;;;;;;;;;;;;
2021/12/17 02:04:46;;;;;;;27.02;12.50;;;;;;;-0.39;86.68;94008.88;4975908;28;20061;-88
2021/12/17 02:07:53;;;;;;;23.55;12.02;;;;;;;0.01;86.69;94065.94;4970247;28;20406;-88
2021/12/17 02:37:54;;;;;;;27.88;11.95;;;;;;;-0.43;86.60;94010.22;5022266;28;20049;-88
2021/12/17 02:50:20;;;;;;;23.25;11.35;;;;;;;-0.16;86.64;94042.19;5034118;28;20057;-88
2021/12/17 02:53:01;;;;;;;20.45;11.52;;;;;;;-0.43;86.92;94000.75;4984692;28;20196;-87
2021/12/17 02:55:53;;;;;;;23.88;11.13;;;;;;;-0.25;86.67;94028.66;5004308;28;20037;-90
2021/12/17 02:58:55;;;;;;;22.73;11.10;;;;;;;-0.04;86.16;94051.03;4982981;28;20073;-88
2021/12/17 03:01:31;;;;;;;;;;;;;;;;;;;;;
2021/12/17 03:04:51;;;;;;;;;;;;;;;;;;;;;
2021/12/17 03:07:34;;;;;;;19.02;9.45;;;;;;;-0.02;86.89;94061.16;5014004;28;20058;-88
2021/12/17 03:10:11;;;;;;;20.13;10.68;;;;;;;-0.44;86.49;93988.06;4997507;28;20064;-90
2021/12/17 03:12:50;;;;;;;24.75;10.35;;;;;;;-0.19;86.96;94021.19;4997863;28;20044;-87
2021/12/17 03:18:58;;;;;;;24.65;11.30;;;;;;;-0.45;87.41;93986.44;5015835;28;20034;-89
2021/12/17 03:24:51;;;;;;;19.40;10.52;;;;;;;-0.49;87.93;93964.66;5004805;28;20049;-88
2021/12/17 03:27:49;;;;;;;;;;;;;;;-0.05;87.83;94031.41;5000085;28;20049;-87
2021/12/17 03:30:50;;;;;;;16.10;8.20;;;;;;;-0.02;88.11;94032.84;4983168;28;19932;-88
2021/12/17 03:34:04;;;;;;;;;;;;;;;;;;;;;
2021/12/17 03:36:53;;;;;;;;;;;;;;;;;;;;;
2021/12/17 03:40:16;;;;;;;17.10;8.68;;;;;;;-0.47;88.27;93954.97;5001612;28;20104;-88
2021/12/17 03:42:50;;;;;;;17.08;8.95;;;;;;;-0.13;88.31;94012.72;4985611;28;20068;-88
2021/12/17 03:45:48;;;;;;;16.33;9.07;;;;;;;-0.14;88.76;94024.00;4981063;28;20095;-88
2021/12/17 03:48:28;;;;;;;;;;;;;;;;;;;;;
2021/12/17 03:51:10;;;;;;;15.45;8.43;;;;;;;-0.45;88.79;93971.00;5006354;28;20041;-90
2021/12/17 03:54:11;;;;;;;18.48;8.88;;;;;;;-0.01;88.15;94040.38;5002012;28;20065;-88
2021/12/17 03:57:09;;;;;;;16.75;8.02;;;;;;;-0.46;88.30;93959.13;5018660;28;20047;-88
2021/12/17 03:59:55;;;;;;;16.42;9.20;;;;;;;-0.15;88.06;94001.81;4998121;28;20489;-87
2021/12/17 04:02:44;;;;;;;;;;;;;;;;;;;;;
2021/12/17 04:05:23;;;;;;;17.23;8.35;;;;;;;-0.22;87.90;93992.25;4996883;28;20034;-87
2021/12/17 04:11:31;;;;;;;;;;;;;;;;;;;;;
2021/12/17 04:14:39;;;;;;;15.00;8.13;;;;;;;-0.38;87.10;93964.19;4984702;28;20042;-88
2021/12/17 04:17:38;;;;;;;;;;;;;;;;;;;;;
2021/12/17 04:20:23;;;;;;;13.65;8.35;;;;;;;-0.38;87.21;93959.03;4999898;28;20064;-88
2021/12/17 04:23:38;;;;;;;16.88;7.68;;;;;;;-0.40;86.69;93948.13;4984542;28;20058;-88
2021/12/17 04:26:12;;;;;;;14.60;7.47;;;;;;;-0.06;86.68;94005.88;5011102;28;20021;-93
2021/12/17 04:29:11;;;;;;;;;;;;;;;;;;;;;
2021/12/17 04:31:50;;;;;;;15.40;6.13;;;;;;;-0.34;85.64;93952.50;5022687;28;20034;-89
2021/12/17 04:34:50;;;;;;;15.95;6.13;;;;;;;0.08;85.34;94015.31;5007074;28;20061;-88
2021/12/17 04:37:38;;;;;;;11.25;4.75;;;;;;;-0.06;84.60;93986.06;4997648;28;20056;-87
2021/12/17 04:40:17;;;;;;;;;;;;;;;;;;;;;
2021/12/17 04:43:28;;;;;;;;;;;;;;;;;;;;;
2021/12/17 04:46:23;;;;;;;10.70;5.25;;;;;;;-0.31;82.81;93949.59;4996144;28;20042;-88
2021/12/17 04:57:40;;;;;;;9.23;4.95;;;;;;;0.12;80.45;93990.78;5017062;28;20045;-88
2021/12/17 05:00:18;;;;;;;13.63;4.25;;;;;;;-0.01;80.11;93960.56;4981816;28;20383;-88
2021/12/17 05:03:11;;;;;;;9.48;3.90;;;;;;;0.23;80.02;93999.78;5014627;28;20080;-87
2021/12/17 05:06:01;;;;;;;8.13;4.22;;;;;;;-0.13;78.98;93930.38;5024927;28;20064;-87
2021/12/17 05:08:37;;;;;;;9.38;4.38;;;;;;;-0.10;78.75;93924.84;5000523;28;20053;-87
2021/12/17 05:20:49;;;;;;;3.28;1.85;;;;;;;0.09;75.32;93928.53;5011329;28;20053;-87
2021/12/17 05:23:41;;;;;;;3.70;2.00;;;;;;;-0.06;75.14;93900.31;5006940;28;20070;-87
2021/12/17 05:26:19;;;;;;;2.63;1.50;;;;;;;0.19;73.66;93934.97;4994938;28;20058;-86
2021/12/17 05:28:59;;;;;;;6.55;1.70;;;;;;;0.17;73.77;93934.34;4972509;28;20093;-87
2021/12/17 05:31:51;;;;;;;;;;;;;;;;;;;;;
2021/12/17 05:34:40;;;;;;;;;;;;;;;;;;;;;
2021/12/17 05:37:19;;;;;;;4.15;1.92;;;;;;;0.25;72.36;93915.41;5003895;28;20033;-87
2021/12/17 05:40:05;;;;;;;3.95;2.10;;;;;;;0.50;72.11;93935.59;5014954;28;20038;-87
2021/12/17 05:42:39;;;;;;;5.25;2.78;;;;;;;0.12;72.20;93859.44;4983564;28;20041;-87
2021/12/17 05:45:46;;;;;;;;;;;;;;;;;;;;;
2021/12/17 05:48:34;;;;;;;8.30;4.30;;;;;;;0.25;73.83;93855.34;5026189;28;20030;-88
2021/12/17 05:51:05;;;;;;;8.02;3.35;;;;;;;0.26;74.15;93856.97;5001765;28;20429;-87
2021/12/17 05:53:42;;;;;;;4.97;2.72;;;;;;;0.78;70.53;93894.28;5002651;28;20029;-90
2021/12/17 05:56:21;;;;;;;9.90;3.40;;;;;;;0.97;71.10;93880.72;4999911;28;20045;-89
2021/12/17 06:01:45;;;;;;;5.22;2.85;;;;;;;0.60;71.20;93846.63;4992788;28;20058;-87
2021/12/17 06:04:33;;;;;;;6.60;2.42;;;;;;;0.87;71.15;93893.16;5002055;28;20033;-88
2021/12/17 06:07:07;;;;;;;6.30;2.10;;;;;;;0.44;70.63;93838.44;4974545;28;20045;-87
2021/12/17 06:09:45;;;;;;;3.95;2.00;;;;;;;0.47;69.86;93841.41;5003151;28;20473;-88
2021/12/17 06:12:33;;;;;;;4.00;2.25;;;;;;;0.68;70.30;93883.56;5015811;28;20042;-88
2021/12/17 06:15:15;;;;;;;4.78;1.90;;;;;;;0.33;69.51;93824.31;4968627;28;20431;-87
2021/12/17 06:17:53;;;;;;;3.28;1.50;;;;;;;0.55;68.35;93848.19;5013181;28;20033;-87
2021/12/17 06:20:27;;;;;;;3.95;2.00;;;;;;;0.41;68.39;93837.81;5002610;28;20033;-87
2021/12/17 06:23:03;;;;;;;3.80;1.90;;;;;;;0.49;68.30;93857.47;4999026;28;20084;-87
2021/12/17 06:25:38;;;;;;;2.97;1.60;;;;;;;0.66;67.05;93864.91;5018527;28;20037;-87
2021/12/17 06:28:36;;;;;;;;;;;;;;;;;;;;;
2021/12/17 06:31:19;;;;;;;;;;;;;;;0.96;67.74;93892.00;5006837;28;20522;-88
2021/12/17 06:33:57;;;;;;;5.13;2.53;;;;;;;0.64;67.39;93830.78;4988269;28;19913;-87
2021/12/17 06:36:26;;;;;;;9.50;2.70;;;;;;;0.71;68.18;93834.19;4984377;28;20060;-88
2021/12/17 06:39:05;;;;;;;3.33;1.83;;;;;;;1.15;67.09;93887.09;5015946;28;20030;-86
2021/12/17 06:41:42;;;;;;;2.20;1.20;;;;;;;0.96;65.58;93845.56;4996181;28;20141;-87
2021/12/17 06:44:29;;;;;;;5.80;1.92;;;;;;;0.85;64.47;93817.78;4996723;28;20088;-88
2021/12/17 06:47:53;;;;;;;2.67;1.58;;;;;;;0.75;65.42;93809.63;5018093;28;20037;-89
2021/12/17 07:09:14;;;;;;;2.30;1.30;;;;;;;1.27;63.31;93872.66;5007396;28;20065;-88
2021/12/17 07:40:27;;;;;;;5.50;2.65;;;;;;;13.20;36.42;93852.31;5009839;28;20120;-89
2021/12/17 07:43:02;;;;;;;7.07;2.72;;;;;;;14.29;34.90;93835.66;4979950;28;20064;-87
2021/12/17 07:45:46;;;;;;;6.63;3.15;;;;;;;15.27;32.43;93846.84;4981410;28;20053;-87
2021/12/17 07:48:28;;;;;;;7.25;3.83;;;;;;;15.53;31.88;93813.00;4995739;28;20045;-87
2021/12/17 07:51:05;;;;;;;8.52;4.10;;;;;;;16.66;30.94;93853.63;4966978;28;20102;-88
2021/12/17 07:53:56;;;;;;;9.52;5.18;;;;;;;17.79;29.03;93846.25;4981484;28;20545;-87
2021/12/17 07:56:47;;;;;;;;;;;;;;;;;;;;;
2021/12/17 07:59:20;;;;;;;7.05;3.97;;;;;;;19.01;26.58;93829.34;4998522;28;20073;-86
2021/12/17 08:01:46;;;;;;;6.78;4.30;;;;;;;19.62;25.67;93829.53;4983446;28;20045;-87
2021/12/17 08:04:15;;;;;;;8.63;3.75;;;;;;;20.40;24.46;93836.81;5032842;28;20017;-89
2021/12/17 08:07:00;;;;;;;8.68;4.20;;;;;;;21.30;23.71;93883.91;5026569;28;20100;-94
2021/12/17 08:09:29;;;;;;;9.50;4.43;;;;;;;21.69;22.82;93859.94;5000589;28;20041;-86
2021/12/17 08:11:57;;;;;;;8.63;4.22;;;;;;;21.64;22.82;93850.25;5010132;28;20098;-87
2021/12/17 08:14:30;;;;;;;7.43;4.10;;;;;;;22.71;22.73;93884.63;5007677;28;20509;-87
2021/12/17 08:17:11;;;;;;;8.95;4.97;;;;;;;23.21;20.56;93865.00;5016634;28;20053;-86
2021/12/17 08:25:15;;;;;;;11.05;6.50;;;;;;;23.88;20.99;93877.06;4997076;28;20077;-87
2021/12/17 08:28:08;;;;;;;14.05;6.88;;;;;;;24.52;19.76;93882.78;4967194;28;20133;-87
2021/12/17 08:30:40;;;;;;;8.15;4.47;;;;;;;24.68;18.33;93878.25;4996571;28;20050;-87
2021/12/17 08:33:13;;;;;;;13.23;6.18;;;;;;;24.04;19.07;93900.44;4981852;28;20479;-87
2021/12/17 08:35:39;;;;;;;40.20;16.75;;;;;;;23.13;21.45;93896.03;4997053;28;20144;-87
2021/12/17 08:38:12;;;;;;;31.27;15.10;;;;;;;23.34;21.47;93913.88;4981537;28;20038;-87
2021/12/17 08:40:38;;;;;;;18.42;9.70;;;;;;;24.22;20.35;93891.06;4996749;28;20541;-86
2021/12/17 08:43:05;;;;;;;14.95;7.90;;;;;;;24.76;20.06;93897.19;4996469;28;20038;-86
2021/12/17 08:45:37;;;;;;;11.75;7.20;;;;;;;24.96;19.06;93869.41;4985381;28;20056;-86
2021/12/17 08:48:53;;;;;;;;;;;;;;;;;;;;;
2021/12/17 08:51:49;;;;;;;8.48;4.15;;;;;;;24.33;17.53;93864.63;4999979;28;20046;-90
2021/12/17 08:54:35;;;;;;;9.00;4.07;;;;;;;22.52;19.18;93856.56;5002313;28;20067;-90
2021/12/17 08:57:15;;;;;;;8.00;4.10;;;;;;;21.07;21.05;93832.75;4995582;28;20050;-90
2021/12/17 09:00:04;;;;;;;12.20;4.40;;;;;;;18.57;22.90;93870.72;4997122;28;20037;-90
2021/12/17 09:03:03;;;;;;;;;;;;;;;;;;;;;
2021/12/17 09:06:09;;;;;;;7.05;3.78;;;;;;;16.02;26.63;93846.16;5013976;28;20041;-90
2021/12/17 09:12:23;;;;;;;8.18;4.22;;;;;;;15.10;29.32;93863.13;5007087;28;20080;-90
2021/12/17 09:15:12;;;;;;;7.75;3.92;;;;;;;14.81;30.31;93846.56;5016856;28;20025;-90
2021/12/17 09:18:08;;;;;;;9.95;3.90;;;;;;;14.62;30.36;93842.00;4990435;28;20048;-90
2021/12/17 09:21:16;;;;;;;7.25;3.80;;;;;;;14.47;30.33;93842.09;4981602;28;20042;-90
2021/12/17 09:24:24;;;;;;;7.15;3.75;;;;;;;14.46;31.05;93843.16;4986869;28;20037;-92
2021/12/17 09:30:52;;;;;;;20.33;11.32;;;;;;;12.14;40.26;93860.88;5014945;28;20096;-90
2021/12/17 09:36:42;;;;;;;25.38;12.45;;;;;;;12.26;42.03;93845.63;4999409;28;20099;-91
2021/12/17 09:42:50;;;;;;;16.30;6.65;;;;;;;12.98;36.98;93845.53;4975272;28;20081;-89
2021/12/17 09:45:34;;;;;;;25.60;11.15;;;;;;;12.19;41.03;93847.75;4988033;28;20038;-90
2021/12/17 09:48:15;;;;;;;28.25;12.55;;;;;;;11.60;43.18;93882.25;4972707;28;20043;-90
2021/12/17 09:51:22;;;;;;;28.45;13.57;;;;;;;11.76;44.11;93864.72;4985611;28;20734;-91
2021/12/17 09:54:13;;;;;;;29.00;11.50;;;;;;;12.25;42.26;93835.41;5029416;28;20033;-91
2021/12/17 09:56:56;;;;;;;23.55;9.88;;;;;;;12.82;40.16;93865.81;4988706;28;20041;-90
2021/12/17 10:00:15;;;;;;;27.13;9.55;;;;;;;13.46;39.23;93895.09;5022999;28;20037;-90
2021/12/17 10:03:19;;;;;;;34.67;15.23;;;;;;;12.25;44.11;93841.44;5005435;28;20132;-90
2021/12/17 10:06:18;;;;;;;33.42;16.17;;;;;;;11.24;46.43;93869.81;5008925;28;20037;-90
2021/12/17 10:08:56;;;;;;;61.88;25.58;;;;;;;11.97;44.84;93883.94;4959292;28;20134;-90
2021/12/17 10:11:48;;;;;;;;;;;;;;;;;;;;;
2021/12/17 10:14:42;;;;;;;;;;;;;;;;;;;;;
2021/12/17 10:18:02;;;;;;;;;;;;;;;;;;;;;
2021/12/17 10:21:04;;;;;;;33.90;15.50;;;;;;;11.27;44.59;93834.41;4991114;28;20480;-91
2021/12/17 10:24:05;;;;;;;31.75;15.25;;;;;;;11.45;46.63;93883.78;4980682;28;20034;-92
2021/12/17 10:30:56;;;;;;;;;;;;;;;;;;;;;
2021/12/17 10:33:29;;;;;;;28.45;12.85;;;;;;;11.18;45.74;93847.22;4980976;28;20089;-90
2021/12/17 10:36:40;;;;;;;27.42;12.07;;;;;;;11.70;43.60;93871.78;4967310;28;20042;-89
2021/12/17 10:39:35;;;;;;;36.05;16.23;;;;;;;10.38;49.49;93799.41;4976737;28;20141;-89
2021/12/17 10:42:28;;;;;;;32.75;14.02;;;;;;;11.55;47.56;93837.63;4993709;28;20105;-92
2021/12/17 10:45:23;;;;;;;;;;;;;;;;;;;;;
2021/12/17 10:54:45;;;;;;;31.08;14.48;;;;;;;12.13;45.28;93811.25;4956051;28;20069;-90
2021/12/17 10:57:43;;;;;;;25.40;13.88;;;;;;;11.19;46.49;93819.19;4952582;29;20047;-90
2021/12/17 11:00:21;;;;;;;40.97;19.70;;;;;;;10.91;48.34;93796.81;4944635;28;20121;-90
2021/12/17 11:02:57;;;;;;;30.80;15.38;;;;;;;10.93;48.88;93799.97;4959647;28;20047;-90
2021/12/17 11:05:44;;;;;;;31.58;16.27;;;;;;;10.86;48.63;93809.91;4958659;28;20736;-90
2021/12/17 11:08:40;;;;;;;;;;;;;;;;;;;;;
2021/12/17 11:11:33;;;;;;;31.17;13.35;;;;;;;10.46;49.48;93769.34;4984141;28;20038;-89
2021/12/17 11:14:14;;;;;;;34.33;13.38;;;;;;;10.96;48.27;93781.09;4967181;28;20120;-91
2021/12/17 11:20:35;;;;;;;41.08;16.92;;;;;;;12.29;44.12;93758.47;4961596;28;20043;-91
2021/12/17 11:23:55;;;;;;;28.73;13.40;;;;;;;13.24;42.99;93801.53;4977769;28;20034;-91
2021/12/17 11:26:40;;;;;;;19.23;9.13;;;;;;;13.94;38.44;93811.97;4939735;28;20381;-91
2021/12/17 11:29:18;;;;;;;27.45;12.13;;;;;;;13.48;41.37;93751.72;4954981;28;20043;-91
2021/12/17 11:32:36;;;;;;;;;;;;;;;;;;;;;
2021/12/17 11:43:04;;;;;;;23.98;11.50;;;;;;;13.17;42.03;93797.63;4967609;28;21228;-77
2021/12/17 11:45:30;;;;;;;31.70;13.85;;;;;;;12.45;44.50;93795.19;4949135;28;20039;-77
2021/12/17 11:48:17;;;;;;;45.78;19.92;;;;;;;12.39;45.02;93793.66;4951540;28;20031;-77
2021/12/17 11:50:44;;;;;;;23.00;12.00;;;;;;;12.50;44.17;93796.00;4967198;28;20591;-77
2021/12/17 11:53:23;;;;;;;33.47;14.35;;;;;;;12.79;43.90;93786.72;4968396;28;20039;-77
2021/12/17 11:55:57;;;;;;;32.85;13.95;;;;;;;12.67;43.11;93774.66;4968532;28;20109;-77
2021/12/17 11:58:41;;;;;;;30.70;11.13;;;;;;;13.08;43.44;93773.72;4963151;28;20031;-77
2021/12/17 12:01:10;;;;;;;21.73;10.93;;;;;;;13.57;41.90;93775.63;4955943;28;20051;-77
2021/12/17 12:03:35;;;;;;;27.42;11.60;;;;;;;12.66;42.83;93778.34;4944541;28;20033;-77
2021/12/17 12:06:01;;;;;;;22.33;11.32;;;;;;;11.80;45.59;93779.22;4955725;28;20043;-76
2021/12/17 12:08:32;;;;;;;26.25;11.88;;;;;;;11.97;46.38;93771.09;4956091;28;20029;-76
2021/12/17 12:11:41;;;;;;;29.95;14.15;;;;;;;12.49;44.99;93760.25;4939021;28;20054;-76
2021/12/17 12:14:31;;;;;;;20.42;9.30;;;;;;;13.39;42.54;93756.00;4951460;28;20039;-76
2021/12/17 12:16:56;;;;;;;54.70;21.10;;;;;;;12.97;42.98;93754.59;4970458;28;20050;-77
2021/12/17 12:19:22;;;;;;;20.80;10.23;;;;;;;12.20;44.76;93759.25;4973555;28;20444;-79
2021/12/17 12:22:04;;;;;;;21.65;10.85;;;;;;;11.98;45.73;93759.53;4975284;28;20609;-76
2021/12/17 12:24:30;;;;;;;31.88;9.00;;;;;;;11.52;46.42;93759.50;4992455;28;20034;-77
2021/12/17 12:26:55;;;;;;;30.77;11.18;;;;;;;11.84;45.77;93756.63;4977409;28;20034;-77
2021/12/17 12:29:23;;;;;;;26.00;11.07;;;;;;;11.83;45.22;93757.69;4974646;28;20041;-75
2021/12/17 12:31:54;;;;;;;18.90;9.48;;;;;;;11.78;45.33;93747.97;4990935;28;20037;-76
2021/12/17 12:34:21;;;;;;;29.15;9.25;;;;;;;11.82;44.33;93749.03;4973249;28;20034;-76
2021/12/17 12:36:56;;;;;;;17.42;9.65;;;;;;;12.19;43.78;93742.75;4981761;28;20038;-76
2021/12/17 12:39:29;;;;;;;18.85;8.00;;;;;;;12.88;42.48;93748.34;4939536;28;20038;-76
2021/12/17 12:41:55;;;;;;;22.77;8.75;;;;;;;12.71;40.61;93746.81;4972827;28;20572;-76
2021/12/17 12:44:43;;;;;;;19.17;9.73;;;;;;;11.99;44.80;93738.28;4972631;28;20118;-76
2021/12/17 12:47:30;;;;;;;18.23;8.18;;;;;;;11.86;43.29;93751.91;4972081;28;20066;-76
2021/12/17 12:50:04;;;;;;;17.45;9.07;;;;;;;11.74;43.88;93749.56;4962344;28;20046;-76
2021/12/17 12:52:59;;;;;;;23.50;9.20;;;;;;;12.00;44.65;93754.81;4972561;28;20185;-77
2021/12/17 12:55:32;;;;;;;21.95;9.05;;;;;;;12.24;43.55;93741.94;4972674;28;20033;-76
2021/12/17 12:57:58;;;;;;;17.23;9.00;;;;;;;12.59;42.22;93746.34;4972374;28;20038;-77
2021/12/17 13:00:26;;;;;;;17.50;8.18;;;;;;;12.69;41.06;93741.03;4972311;28;20041;-76
2021/12/17 13:02:58;;;;;;;16.20;7.65;;;;;;;12.84;40.06;93734.94;4972528;28;20035;-76
2021/12/17 13:05:25;;;;;;;18.20;9.48;;;;;;;12.46;42.54;93741.63;4955051;28;20051;-76
2021/12/17 13:07:56;;;;;;;17.13;7.15;;;;;;;12.31;41.04;93733.78;4954586;28;20045;-76
2021/12/17 13:10:28;;;;;;;17.73;8.95;;;;;;;12.79;42.07;93736.78;4954996;28;20101;-76
2021/12/17 13:13:14;;;;;;;16.80;7.85;;;;;;;12.60;42.88;93740.00;4955460;28;20037;-76
2021/12/17 13:15:50;;;;;;;16.83;7.78;;;;;;;12.48;42.86;93731.66;4955100;28;20134;-76
2021/12/17 13:24:05;;;;;;;11.07;5.88;;;;;;;12.63;38.71;93715.84;4955104;28;20650;-76
2021/12/17 13:26:31;;;;;;;11.93;6.38;;;;;;;12.69;39.89;93717.38;4955290;28;20126;-76
2021/12/17 13:29:06;;;;;;;15.18;6.43;;;;;;;12.80;39.64;93709.47;4951088;29;20110;-76
2021/12/17 13:31:44;;;;;;;13.20;5.38;;;;;;;12.26;38.83;93714.38;4952910;29;20074;-76
2021/12/17 13:34:24;;;;;;;11.30;5.50;;;;;;;12.20;38.16;93709.38;4935732;29;20464;-76
2021/12/17 13:37:22;;;;;;;12.52;6.50;;;;;;;12.33;39.26;93708.06;4951918;29;20031;-76
2021/12/17 13:39:54;;;;;;;14.52;6.55;;;;;;;12.89;38.88;93710.47;4960123;28;20047;-76
2021/12/17 13:42:21;;;;;;;18.10;7.55;;;;;;;12.93;38.63;93706.25;4971799;28;20085;-77
2021/12/17 13:44:54;;;;;;;17.60;7.72;;;;;;;13.11;39.20;93703.00;4972184;28;20038;-76
2021/12/17 13:47:28;;;;;;;19.20;7.40;;;;;;;13.13;39.49;93698.28;4954673;28;20086;-76
2021/12/17 13:50:06;;;;;;;17.52;7.32;;;;;;;12.45;39.94;93704.09;4954516;28;20062;-76
2021/12/17 13:52:35;;;;;;;13.57;6.45;;;;;;;11.92;40.99;93701.03;4938860;28;20042;-76
2021/12/17 13:55:05;;;;;;;16.48;6.57;;;;;;;11.53;41.60;93696.31;4954692;28;20447;-75
2021/12/17 13:57:32;;;;;;;20.40;6.40;;;;;;;11.98;40.20;93699.19;4972219;28;20272;-76
2021/12/17 14:00:17;;;;;;;12.32;6.45;;;;;;;11.99;39.14;93700.78;4954399;28;20030;-75
2021/12/17 14:02:45;;;;;;;11.20;5.75;;;;;;;12.61;38.40;93702.19;4954831;28;20038;-76
2021/12/17 14:05:15;;;;;;;10.45;5.97;;;;;;;13.12;37.99;93704.56;4954902;28;20124;-76
2021/12/17 14:07:46;;;;;;;14.25;6.10;;;;;;;13.48;38.08;93698.34;4971897;28;20089;-76
2021/12/17 14:10:19;;;;;;;12.50;5.88;;;;;;;13.85;37.51;93697.78;4954635;28;20033;-76
2021/12/17 14:12:45;;;;;;;;;;;;;;;13.94;38.03;93692.72;4958265;28;20030;-76
2021/12/17 14:15:16;;;;;;;13.18;5.97;;;;;;;12.66;37.38;93701.38;4975508;28;19914;-76
2021/12/17 14:17:46;;;;;;;13.57;6.97;;;;;;;12.35;38.81;93709.34;4975840;28;20039;-76
2021/12/17 14:20:14;;;;;;;13.10;6.72;;;;;;;12.09;39.77;93703.38;4968343;28;20130;-76
2021/12/17 14:22:44;;;;;;;16.92;6.35;;;;;;;12.64;38.72;93706.91;4957756;28;20070;-75
2021/12/17 14:25:47;;;;;;;12.30;5.40;;;;;;;12.70;40.06;93705.84;4978170;28;20035;-76
2021/12/17 14:28:20;;;;;;;12.90;5.78;;;;;;;13.16;38.75;93704.03;4934839;28;20460;-76
2021/12/17 14:30:56;;;;;;;8.57;4.68;;;;;;;13.48;38.65;93709.63;4974834;28;20077;-76
2021/12/17 14:33:44;;;;;;;12.40;5.30;;;;;;;13.87;37.43;93703.56;4974336;28;20031;-76
2021/12/17 14:36:13;;;;;;;11.88;5.32;;;;;;;14.13;36.73;93690.94;4974641;28;20121;-76
2021/12/17 14:38:40;;;;;;;8.95;4.78;;;;;;;14.14;36.19;93705.69;4974638;28;20037;-76
2021/12/17 14:41:10;;;;;;;12.75;5.70;;;;;;;13.68;36.85;93698.19;4958034;28;20047;-79
2021/12/17 14:43:54;;;;;;;11.68;4.50;;;;;;;13.35;36.92;93702.34;4978396;28;20385;-82
2021/12/17 14:46:27;;;;;;;8.13;3.92;;;;;;;12.65;38.51;93711.13;4969375;28;20035;-81
2021/12/17 15:02:48;;;;;;;7.55;4.05;;;;;;;10.31;43.75;93678.44;4968062;28;20046;-78
2021/12/17 15:05:18;;;;;;;9.50;4.10;;;;;;;10.14;44.64;93683.84;4968343;28;20039;-78
2021/12/17 15:07:44;;;;;;;9.55;4.65;;;;;;;9.67;43.03;93680.13;4983554;28;20035;-78
2021/12/17 15:10:11;;;;;;;7.55;3.92;;;;;;;9.35;42.17;93688.78;4983006;28;20035;-80
2021/12/17 15:12:39;;;;;;;9.60;4.28;;;;;;;9.22;44.83;93688.41;4982405;28;20037;-81
2021/12/17 15:15:18;;;;;;;9.45;4.05;;;;;;;9.09;46.41;93694.81;4967642;28;20034;-81
2021/12/17 15:17:46;;;;;;;10.90;5.40;;;;;;;9.00;47.22;93693.69;4980752;28;20038;-80
2021/12/17 15:20:13;;;;;;;10.05;5.15;;;;;;;8.86;47.68;93673.19;4984018;28;20037;-80
2021/12/17 15:22:40;;;;;;;10.27;5.82;;;;;;;8.64;48.18;93667.19;4985002;28;20092;-80
2021/12/17 15:25:08;;;;;;;14.95;7.38;;;;;;;8.42;48.96;93657.59;4983084;28;20027;-79
2021/12/17 15:27:35;;;;;;;9.85;4.75;;;;;;;8.39;49.04;93678.91;4962928;28;20039;-78
2021/12/17 15:30:10;;;;;;;8.82;4.07;;;;;;;8.21;49.22;93673.97;4962819;28;20093;-79
2021/12/17 15:32:36;;;;;;;8.93;4.00;;;;;;;8.09;50.18;93671.50;4983234;28;20034;-79
2021/12/17 15:35:03;;;;;;;7.22;3.83;;;;;;;7.93;50.98;93667.88;4983241;28;20035;-79
2021/12/17 15:37:29;;;;;;;8.38;4.25;;;;;;;7.78;51.17;93681.50;4946571;29;20047;-79
2021/12/17 15:39:55;;;;;;;11.93;4.05;;;;;;;7.54;52.16;93670.44;4973577;28;20045;-79
2021/12/17 15:42:20;;;;;;;6.90;3.38;;;;;;;7.43;51.72;93673.94;4964595;28;20515;-78
2021/12/17 15:44:46;;;;;;;14.25;6.22;;;;;;;7.30;51.00;93670.63;4966346;28;20151;-78
2021/12/17 15:47:12;;;;;;;13.10;5.40;;;;;;;7.17;51.07;93676.13;4984412;28;20085;-79
2021/12/17 15:49:38;;;;;;;7.22;3.70;;;;;;;7.03;50.40;93664.44;4982489;28;20030;-78
2021/12/17 15:52:07;;;;;;;5.43;2.47;;;;;;;6.96;48.81;93667.19;4981495;28;20034;-78
2021/12/17 15:54:37;;;;;;;8.05;2.13;;;;;;;6.86;47.16;93659.22;4969404;28;20090;-79
2021/12/17 15:57:06;;;;;;;4.40;1.98;;;;;;;6.77;47.17;93669.19;4992248;28;20042;-79
2021/12/17 15:59:32;;;;;;;5.63;2.42;;;;;;;6.69;47.37;93653.97;4986352;28;20031;-78
2021/12/17 16:01:58;;;;;;;11.98;5.90;;;;;;;6.62;48.21;93656.72;5003992;28;20075;-79
2021/12/17 16:04:24;;;;;;;18.00;8.35;;;;;;;6.56;49.10;93655.03;4982406;28;20039;-79
2021/12/17 16:06:50;;;;;;;19.83;9.48;;;;;;;6.51;49.96;93661.94;4975164;28;20125;-79
2021/12/17 16:12:11;;;;;;;18.67;9.05;;;;;;;6.31;51.11;93659.78;4970676;28;20070;-79
2021/12/17 16:18:14;;;;;;;46.38;18.30;;;;;;;6.16;51.94;93652.44;4971556;28;20086;-79
2021/12/17 16:22:53;;;;;;;19.65;7.93;;;;;;;6.05;51.86;93654.84;4965103;28;20098;-79
2021/12/17 16:25:18;;;;;;;16.00;8.63;;;;;;;6.02;51.40;93644.13;4949540;28;20110;-79
2021/12/17 16:27:44;;;;;;;18.52;7.97;;;;;;;5.96;50.99;93642.44;4951502;28;20046;-78
2021/12/17 16:30:10;;;;;;;14.02;6.30;;;;;;;5.93;50.20;93651.44;4967119;28;20031;-78
2021/12/17 16:32:36;;;;;;;7.43;4.40;;;;;;;5.81;50.41;93625.47;4979332;28;20070;-79
2021/12/17 16:35:03;;;;;;;10.32;4.50;;;;;;;5.82;50.32;93639.25;4975678;28;20511;-80
2021/12/17 16:37:29;;;;;;;9.23;4.55;;;;;;;5.76;50.46;93629.75;4976016;28;20118;-78
2021/12/17 16:39:54;;;;;;;7.95;3.80;;;;;;;5.69;50.72;93629.09;4965446;28;20428;-81
2021/12/17 16:42:20;;;;;;;9.93;3.78;;;;;;;5.62;51.13;93619.63;4956675;28;20068;-78
2021/12/17 16:45:13;;;;;;;10.90;5.40;;;;;;;5.58;51.74;93622.91;4944998;28;20038;-80
2021/12/17 16:47:34;;;;;;;7.90;4.20;;;;;;;5.52;52.38;93629.81;4975945;28;20038;-80
2021/12/17 16:50:02;;;;;;;7.60;3.83;;;;;;;5.47;51.80;93627.09;4975171;28;20022;-77
2021/12/17 16:52:29;;;;;;;8.55;3.13;;;;;;;5.41;52.04;93617.59;4958386;28;20065;-80
2021/12/17 16:55:03;;;;;;;4.63;2.33;;;;;;;5.40;52.06;93616.00;4957189;28;20493;-80
2021/12/17 16:57:30;;;;;;;9.82;5.72;;;;;;;5.35;52.59;93615.91;4976596;28;20043;-81
2021/12/17 16:59:55;;;;;;;6.57;3.63;;;;;;;5.33;52.71;93623.13;4976377;28;20035;-81
2021/12/17 17:02:22;;;;;;;8.20;3.38;;;;;;;5.28;52.73;93623.03;4961360;28;20129;-79
2021/12/17 17:04:47;;;;;;;8.52;3.67;;;;;;;5.22;51.88;93617.72;4977476;28;20089;-79
2021/12/17 17:07:13;;;;;;;8.95;4.22;;;;;;;5.20;51.72;93611.97;4976529;28;20039;-81
2021/12/17 17:09:39;;;;;;;6.28;3.10;;;;;;;5.19;51.75;93609.59;4959685;28;20070;-78
2021/12/17 17:12:08;;;;;;;8.95;3.40;;;;;;;5.14;51.00;93612.84;4944332;28;20071;-79
2021/12/17 17:14:34;;;;;;;4.80;2.00;;;;;;;5.16;49.58;93602.25;4967490;28;20022;-79
2021/12/17 17:17:01;;;;;;;8.05;2.90;;;;;;;5.22;48.95;93604.75;4972930;28;20062;-79
2021/12/17 17:19:27;;;;;;;8.13;3.92;;;;;;;5.25;49.43;93602.72;4960149;28;20030;-78
2021/12/17 17:21:56;;;;;;;5.40;2.70;;;;;;;5.19;49.58;93594.78;4958241;28;20058;-77
2021/12/17 17:24:22;;;;;;;4.18;2.42;;;;;;;5.19;49.60;93591.41;4941823;28;20051;-78
2021/12/17 17:26:49;;;;;;;5.18;2.30;;;;;;;5.19;49.89;93587.00;4955709;28;20031;-78